Loging...

KPDC, Korea Polar Data Center

Korea Polar Data Center Scientific observations and results from Antarctica shall
be exchanged and made freely available

Keyword Search

Advanced Search

Search 28,394 data out of 28,394

Metadata Search Results1
No. Title Reg. Date
101 [KOPRI-KVH-00002585]Desmarestia anceps R.L. Moe & P.C. Silver (KOPRI-CH3566) 2019-11-20
102 [KOPRI-KVH-00002525]Monostroma hariotii Gain (KOPRI-CH3577) 2019-11-20
103 [KOPRI-KVH-00002526]Monostroma hariotii Gain (KOPRI-CH3578) 2019-11-20
104 [KOPRI-KVH-00002606]Monostroma hariotii Gain (KOPRI-CH3641) 2019-11-20
105 [KOPRI-KVH-00002602]Phaeurus antarcticus Skottsberg (KOPRI-CH3640) 2019-11-20
106 [KOPRI-KVH-00002413]Gigartina skottsbergii Setchell et Gardner (KOPRI-CH3447) 2019-11-19
107 [KOPRI-KVH-00002414]Gigartina skottsbergii Setchell et Gardner (KOPRI-CH3448) 2019-11-19
108 [KOPRI-KVH-00002487]Gigartina skottsbergii Setchell et Gardner (KOPRI-CH3534) 2019-11-19
109 [KOPRI-KVH-00002587]Kallymenia antarctica Hariot (KOPRI-CH3568) 2019-11-19
110 [KOPRI-KVH-00002593]Phyllophora antarctica Skottsberg (KOPRI-CH3633) 2019-11-19
111 [KOPRI-KVH-00002594]Phyllophora antarctica Skottsberg (KOPRI-CH3634) 2019-11-19
112 [KOPRI-KVH-00002595]Phyllophora antarctica Skottsberg (KOPRI-CH3635) 2019-11-19
113 [KOPRI-KVH-00002596]Phyllophora antarctica Skottsberg (KOPRI-CH3636) 2019-11-19
114 [KOPRI-KVH-00002597]Phyllophora antarctica Skottsberg (KOPRI-CH3637) 2019-11-19
115 [KOPRI-KVH-00002598]Phyllophora antarctica Skottsberg (KOPRI-CH3638) 2019-11-19
116 [KOPRI-KVH-00002599]Phyllophora antarctica Skottsberg (KOPRI-CH3639) 2019-11-19
117 [KOPRI-KVH-00002590]Iridaea cordata (Turner) Bory de Saint-Vincent (KOPRI-CH3630) 2019-11-19
118 [KOPRI-KPDC-00001407]ARA10C Multibeam Survey 2019-11-19
119 [KOPRI-KPDC-00001418]Eddy covariance data at DASAN Station in 2019 2019-11-13
120 [KOPRI-KPDC-00001417]Eddy covariance data of Russia permafrost site in 2018 2019-11-13
121 [KOPRI-KPDC-00001416]Eddy covariance data of Alaska permafrost site in 2019 2019-11-13
122 [KOPRI-KPDC-00001415]Eddy covariance data of Greenland permafrost site in 2018 2019-11-13
123 [KOPRI-KPDC-00001414]Eddy covariance data of Canada permafrost site in 2018 2019-11-13
124 [KOPRI-KPDC-00001413]NDVI data collected from climate manipulation plots in Cambridge Bay, Canada in 2019 2019-11-13
125 [KOPRI-KPDC-00001412]Air temperature and humidity data collected from climate manipulation plots in Cambridge Bay, Canada in 2019 2019-11-13
126 [KOPRI-KPDC-00001411]CO2/Soil temperature profile of Alaska permafrost site in 2019 2019-11-13
127 [KOPRI-KPDC-00001410]Soil moisture and humidity data collected from climate manipulation plots in Cambridge Bay, Canada in 2019 2019-11-13
128 [KOPRI-KPDC-00001290]Atmospheric ion species measured from Storhofdi, Iceland in 2017 2019-11-13
129 [KOPRI-KPDC-00001406] Black Carbon data at Cambridge Bay station in 2019 2019-11-13
130 [KOPRI-KPDC-00001405]Wind data on ARAON DaDis for Antarctic cruise, 2018/2019 2019-11-12
131 [KOPRI-KPDC-00001404]Wind data on ARAON DaDis for Antarctic cruise, 2017/2018 2019-11-12
132 [KOPRI-KPDC-00001403]Wind data on ARAON DaDis for Antarctic cruise, 2016/2017 2019-11-12
133 [KOPRI-KPDC-00001402]Wind data on ARAON DaDis for Antarctic cruise, 2015/2016 2019-11-12
134 [KOPRI-KPDC-00001401]Wind data on ARAON DaDis for Antarctic cruise, 2014/2015 2019-11-12
135 [KOPRI-KPDC-00001400]Wind data on ARAON DaDis for Antarctic cruise, 2013/2014 2019-11-12
136 [KOPRI-KPDC-00001399]Wind data on ARAON DaDis for Antarctic cruise, 2012/2013 2019-11-12
137 [KOPRI-KPDC-00001398]Wind data on ARAON DaDis for Antarctic cruise, 2011/2012 2019-11-12
138 [KOPRI-KPDC-00001397]Wind data on ARAON DaDis for Antarctic cruise, 2010/2011 2019-11-12
139 [KOPRI-KPDC-00001395]Wind data on ARAON DaDis for Arctic cruise, 2018 2019-11-12
140 [KOPRI-KPDC-00001394]Wind data on ARAON DaDis for Arctic cruise, 2017 2019-11-12
141 [KOPRI-KPDC-00001393]Wind data on ARAON DaDis for Arctic cruise, 2016 2019-11-12
142 [KOPRI-KPDC-00001392]Wind data on ARAON DaDis for Arctic cruise, 2015 2019-11-12
143 [KOPRI-KPDC-00001391]Wind data on ARAON DaDis for Arctic cruise, 2010 2019-11-12
144 [KOPRI-KPDC-00001390]Wind data on ARAON DaDis for Arctic cruise, 2011 2019-11-12
145 [KOPRI-KPDC-00001389]Wind data on ARAON DaDis for Arctic cruise, 2012 2019-11-12
146 [KOPRI-KPDC-00001388]Wind data on ARAON DaDis for Arctic cruise, 2013 2019-11-12
147 [KOPRI-KPDC-00001387]Wind data on ARAON DaDis for Arctic cruise, 2014 2019-11-12
148 [KOPRI-KPDC-00001386]Weather data on ARAON DaDis for Arctic cruise, 2019 2019-11-12
149 [KOPRI-KPDC-00001385]Weather data on ARAON DaDis for Arctic cruise, 2018 2019-11-12
150 [KOPRI-KPDC-00001384]Weather data on ARAON DaDis for Arctic cruise, 2017 2019-11-12
151 [KOPRI-KPDC-00001383]Weather data on ARAON DaDis for Arctic cruise, 2016 2019-11-12
152 [KOPRI-KPDC-00001382]Weather data on ARAON DaDis for Antarctic cruise, 2018/2019 2019-11-12
153 [KOPRI-KPDC-00001381]Weather data on ARAON DaDis for Antarctic cruise, 2017/2018 2019-11-12
154 [KOPRI-KPDC-00001380]Weather data on ARAON DaDis for Antarctic cruise, 2016/2017 2019-11-12
155 [KOPRI-KPDC-00001379]Thermosalinograph data on ARAON DaDis for Antarctic cruise, 2018/2019 2019-11-12
156 [KOPRI-KPDC-00001378]Thermosalinograph data on ARAON DaDis for Antarctic cruise, 2017/2018 2019-11-12
157 [KOPRI-KPDC-00001377]Thermosalinograph data on ARAON DaDis for Antarctic cruise, 2016/2017 2019-11-12
158 [KOPRI-KPDC-00001376]Thermosalinograph data on ARAON DaDis for Antarctic cruise, 2015/2016 2019-11-12
159 [KOPRI-KPDC-00001375]Thermosalinograph data on ARAON DaDis for Antarctic cruise, 2014/2015 2019-11-12
160 [KOPRI-KPDC-00001374]Thermosalinograph data on ARAON DaDis for Antarctic cruise, 2013/2014 2019-11-12
161 [KOPRI-KPDC-00001373]Thermosalinograph data on ARAON DaDis for Antarctic cruise, 2012/2013 2019-11-12
162 [KOPRI-KPDC-00001372]Thermosalinograph data on ARAON DaDis for Antarctic cruise, 2011/2012 2019-11-12
163 [KOPRI-KPDC-00001371]Thermosalinograph data on ARAON DaDis for Antarctic cruise, 2010/2011 2019-11-12
164 [KOPRI-KPDC-00001370]Thermosalinograph data on ARAON DaDis for Arctic cruise, 2019 2019-11-12
165 [KOPRI-KPDC-00001369]Thermosalinograph data on ARAON DaDis for Arctic cruise, 2018 2019-11-12
166 [KOPRI-KPDC-00001368]Thermosalinograph data on ARAON DaDis for Arctic cruise, 2017 2019-11-12
167 [KOPRI-KPDC-00001367]Thermosalinograph data on ARAON DaDis for Arctic cruise, 2016 2019-11-12
168 [KOPRI-KPDC-00001366]Thermosalinograph data on ARAON DaDis for Arctic cruise, 2015 2019-11-12
169 [KOPRI-KPDC-00001365]Thermosalinograph data on ARAON DaDis for Arctic cruise, 2014 2019-11-12
170 [KOPRI-KPDC-00001364]Thermosalinograph data on ARAON DaDis for Arctic cruise, 2013 2019-11-12
171 [KOPRI-KPDC-00001363]Thermosalinograph data on ARAON DaDis for Arctic cruise, 2012 2019-11-12
172 [KOPRI-KPDC-00001362]Thermosalinograph data on ARAON DaDis for Arctic cruise, 2011 2019-11-12
173 [KOPRI-KPDC-00001361]Thermosalinograph data on ARAON DaDis for Arctic cruise, 2010 2019-11-12
174 [KOPRI-KPDC-00001360]Motion sensor data on ARAON DaDis for Antarctic cruise, 2018/2019 2019-11-12
175 [KOPRI-KPDC-00001359]Motion sensor data on ARAON DaDis for Antarctic cruise, 2017/2018 2019-11-12
176 [KOPRI-KPDC-00001358]Motion sensor data on ARAON DaDis for Antarctic cruise, 2016/2017 2019-11-12
177 [KOPRI-KPDC-00001357]Motion sensor data on ARAON DaDis for Antarctic cruise, 2015/2016 2019-11-12
178 [KOPRI-KPDC-00001356]Motion sensor data on ARAON DaDis for Antarctic cruise, 2014/2015 2019-11-12
179 [KOPRI-KPDC-00001355]Motion sensor data on ARAON DaDis for Antarctic cruise, 2013/2014 2019-11-12
180 [KOPRI-KPDC-00001354]Motion sensor data on ARAON DaDis for Antarctic cruise, 2012/2013 2019-11-12
181 [KOPRI-KPDC-00001353]Motion sensor data on ARAON DaDis for Antarctic cruise, 2011/2012 2019-11-12
182 [KOPRI-KPDC-00001352]Motion sensor data on ARAON DaDis for Antarctic cruise, 2010/2011 2019-11-12
183 [KOPRI-KPDC-00001351]Motion sensor data on ARAON DaDis for Arctic cruise, 2019 2019-11-12
184 [KOPRI-KPDC-00001350]Motion sensor data on ARAON DaDis for Arctic cruise, 2018 2019-11-12
185 [KOPRI-KPDC-00001349]Motion sensor data on ARAON DaDis for Arctic cruise, 2017 2019-11-12
186 [KOPRI-KPDC-00001348]Motion sensor data on ARAON DaDis for Arctic cruise, 2016 2019-11-12
187 [KOPRI-KPDC-00001347]Motion sensor data on ARAON DaDis for Arctic cruise, 2015 2019-11-12
188 [KOPRI-KPDC-00001346]Motion sensor data on ARAON DaDis for Arctic cruise, 2014 2019-11-12
189 [KOPRI-KPDC-00001345]Motion sensor data on ARAON DaDis for Arctic cruise, 2013 2019-11-12
190 [KOPRI-KPDC-00001344]Motion sensor data on ARAON DaDis for Arctic cruise, 2012 2019-11-12
191 [KOPRI-KPDC-00001343]Motion sensor data on ARAON DaDis for Arctic cruise, 2011 2019-11-12
192 [KOPRI-KPDC-00001342]Motion sensor data on ARAON DaDis for Arctic cruise, 2010 2019-11-12
193 [KOPRI-KPDC-00001341]Namelist files for WRF and COSP runs in "Simulations of winter Arctic clouds and associated radiation fluxes using different cloud microphysics schemes in the Polar WRF: Comparisons with CloudSat, CALIPSO, and CERES" 2019-11-12
194 [KOPRI-KPDC-00001336]Gyro compass data on ARAON DaDis for Antarctic cruise, 2014/2015 2019-11-08
195 [KOPRI-KPDC-00001340]Gyro compass data on ARAON DaDis for Antarctic cruise, 2018/2019 2019-11-08
196 [KOPRI-KPDC-00001339]Gyro compass data on ARAON DaDis for Antarctic cruise, 2017/2018 2019-11-08
197 [KOPRI-KPDC-00001338]Gyro compass data on ARAON DaDis for Antarctic cruise, 2016/2017 2019-11-08
198 [KOPRI-KPDC-00001337]Gyro compass data on ARAON DaDis for Antarctic cruise, 2015/2016 2019-11-08
199 [KOPRI-KPDC-00001335]Gyro compass data on ARAON DaDis for Antarctic cruise, 2013/2014 2019-11-08
200 [KOPRI-KPDC-00001334]Gyro compass data on ARAON DaDis for Antarctic cruise, 2012/2013 2019-11-08